Time;durP1;ratioP1;P1;durP2;ratioP2;P2;SDS_P1;SDS_P2;PMS_P1;PMS_P2;Temp;Humidity;BMP_temperature;BMP_pressure;BME280_temperature;BME280_humidity;BME280_pressure;Samples;Min_cycle;Max_cycle;Signal;HPM_P1;HPM_P2
2021/07/26 00:02:00;;;;;;;1.80;1.70;;;;;;;26.72;46.80;97817.41;5035183;28;20213;-59
2021/07/26 00:04:27;;;;;;;1.87;1.77;;;;;;;26.76;46.71;97820.41;5035242;28;20186;-59
2021/07/26 00:06:53;;;;;;;2.00;1.90;;;;;;;26.78;46.34;97823.69;5035424;28;20198;-60
2021/07/26 00:09:20;;;;;;;1.87;1.77;;;;;;;26.76;46.61;97815.88;5035181;28;20189;-59
2021/07/26 00:11:47;;;;;;;1.93;1.73;;;;;;;26.75;46.66;97819.59;5035618;28;20228;-59
2021/07/26 00:14:13;;;;;;;1.80;1.70;;;;;;;26.74;46.32;97817.16;5033833;28;20198;-59
2021/07/26 00:16:40;;;;;;;1.80;1.70;;;;;;;26.75;46.63;97818.78;5034984;28;20196;-60
2021/07/26 00:19:06;;;;;;;1.93;1.83;;;;;;;26.74;46.62;97811.78;5034977;28;20245;-59
2021/07/26 00:21:32;;;;;;;2.90;1.93;;;;;;;26.73;46.63;97805.66;5035099;28;20202;-60
2021/07/26 00:23:59;;;;;;;2.00;1.90;;;;;;;26.74;46.68;97806.44;5034959;28;20236;-60
2021/07/26 00:26:25;;;;;;;1.77;1.67;;;;;;;26.72;46.63;97812.03;5033730;28;20190;-59
2021/07/26 00:28:54;;;;;;;2.03;1.90;;;;;;;26.76;46.44;97815.88;5033919;28;20248;-60
2021/07/26 00:31:20;;;;;;;1.90;1.80;;;;;;;26.78;45.94;97813.00;5034582;28;20213;-59
2021/07/26 00:34:19;;;;;;;2.13;1.90;;;;;;;26.75;46.08;97808.06;5034783;28;20244;-60
2021/07/26 00:36:56;;;;;;;1.60;1.50;;;;;;;26.71;46.45;97813.09;5034913;28;20182;-59
2021/07/26 00:39:27;;;;;;;2.00;1.90;;;;;;;26.77;45.93;97816.69;5034912;28;20182;-59
2021/07/26 00:41:55;;;;;;;1.87;1.77;;;;;;;26.83;45.84;97817.63;5033215;28;20205;-60
2021/07/26 00:44:24;;;;;;;2.07;1.97;;;;;;;26.80;45.95;97810.88;5034471;28;20240;-59
2021/07/26 00:46:52;;;;;;;2.07;1.80;;;;;;;26.75;45.94;97814.25;5034960;28;20194;-59
2021/07/26 00:49:20;;;;;;;1.90;1.80;;;;;;;26.80;45.70;97816.25;5034697;28;20190;-60
2021/07/26 00:51:49;;;;;;;1.70;1.60;;;;;;;26.81;45.85;97806.34;5034224;28;20651;-59
2021/07/26 00:54:18;;;;;;;1.60;1.50;;;;;;;26.82;45.73;97813.31;5034374;28;20186;-60
2021/07/26 00:56:47;;;;;;;1.77;1.67;;;;;;;26.83;46.02;97807.75;5034298;28;20717;-59
2021/07/26 00:59:15;;;;;;;1.90;1.80;;;;;;;26.81;45.70;97804.50;5034471;28;20317;-60
2021/07/26 01:01:42;;;;;;;1.70;1.60;;;;;;;26.78;45.71;97811.09;5034435;28;20624;-60
2021/07/26 01:04:08;;;;;;;1.80;1.70;;;;;;;26.79;45.83;97811.94;5032876;28;20240;-60
2021/07/26 01:06:35;;;;;;;1.90;1.80;;;;;;;26.76;46.00;97810.53;5034091;28;20194;-60
2021/07/26 01:09:02;;;;;;;1.70;1.60;;;;;;;26.82;45.76;97814.16;5034061;28;20202;-60
2021/07/26 01:11:29;;;;;;;1.97;1.87;;;;;;;26.86;45.60;97817.19;5034383;28;20285;-60
2021/07/26 01:13:56;;;;;;;2.27;1.90;;;;;;;26.78;45.66;97821.81;5032649;28;20644;-60
2021/07/26 01:16:25;;;;;;;1.67;1.57;;;;;;;26.79;45.92;97819.97;5034142;28;20276;-59
2021/07/26 01:18:52;;;;;;;1.60;1.50;;;;;;;26.79;46.00;97812.75;5033879;28;20605;-60
2021/07/26 01:21:20;;;;;;;1.67;1.57;;;;;;;26.79;45.65;97814.63;5033762;28;20186;-59
2021/07/26 01:23:50;;;;;;;2.00;1.90;;;;;;;26.81;45.98;97812.53;5033810;28;20190;-59
2021/07/26 01:26:19;;;;;;;2.60;1.73;;;;;;;26.81;45.71;97814.38;5033719;28;20190;-60
2021/07/26 01:28:57;;;;;;;1.60;1.50;;;;;;;26.81;45.85;97820.56;5033673;28;20656;-60
2021/07/26 01:31:24;;;;;;;2.03;1.90;;;;;;;26.79;45.64;97819.97;5033544;28;20190;-59
2021/07/26 01:33:51;;;;;;;1.87;1.77;;;;;;;26.80;45.78;97821.59;5033614;28;20197;-59
2021/07/26 01:36:19;;;;;;;1.83;1.73;;;;;;;26.83;45.58;97825.66;5033475;28;20240;-59
2021/07/26 01:38:50;;;;;;;1.90;1.50;;;;;;;26.87;45.27;97838.38;5033653;28;20190;-59
2021/07/26 01:41:22;;;;;;;1.90;1.80;;;;;;;26.87;45.27;97829.56;5032228;28;20256;-60
2021/07/26 01:44:03;;;;;;;1.70;1.60;;;;;;;26.84;45.57;97829.97;5034018;28;20589;-60
2021/07/26 01:47:00;;;;;;;1.60;1.50;;;;;;;26.75;45.87;97834.84;5033649;28;20193;-60
2021/07/26 01:49:32;;;;;;;1.90;1.80;;;;;;;26.74;45.87;97838.56;5033914;28;20174;-60
2021/07/26 01:51:59;;;;;;;1.67;1.57;;;;;;;26.75;45.83;97840.19;5033253;28;20301;-60
2021/07/26 01:54:27;;;;;;;1.83;1.73;;;;;;;26.73;45.50;97847.63;5032529;28;20182;-60
2021/07/26 01:56:55;;;;;;;1.60;1.40;;;;;;;26.71;45.74;97861.25;5033251;28;20197;-60
2021/07/26 01:59:21;;;;;;;1.70;1.60;;;;;;;26.72;45.57;97856.72;5031914;28;20205;-60
2021/07/26 02:01:48;;;;;;;1.70;1.60;;;;;;;26.76;45.49;97853.34;5033056;28;20205;-60
2021/07/26 02:04:15;;;;;;;1.50;1.40;;;;;;;26.73;45.42;97853.81;5032254;28;20190;-60
2021/07/26 02:06:42;;;;;;;1.60;1.50;;;;;;;26.74;45.36;97857.28;5033116;28;20201;-60
2021/07/26 02:09:08;;;;;;;1.80;1.70;;;;;;;26.77;45.88;97848.81;5033072;28;20186;-59
2021/07/26 02:11:35;;;;;;;1.67;1.57;;;;;;;26.75;45.70;97850.91;5033213;28;20228;-59
2021/07/26 02:14:09;;;;;;;1.73;1.60;;;;;;;26.73;45.78;97847.63;5033828;28;20190;-60
2021/07/26 02:16:36;;;;;;;1.60;1.50;;;;;;;26.70;45.59;97858.81;5033520;28;20232;-60
2021/07/26 02:19:04;;;;;;;1.80;1.70;;;;;;;26.86;45.40;97857.34;5033582;28;20187;-60
2021/07/26 02:21:31;;;;;;;1.77;1.67;;;;;;;26.75;45.55;97857.06;5032884;28;20190;-60
2021/07/26 02:23:58;;;;;;;1.37;1.30;;;;;;;26.72;45.35;97860.22;5033034;28;20190;-59
2021/07/26 02:26:25;;;;;;;1.63;1.53;;;;;;;26.71;45.29;97861.25;5032888;28;20210;-59
2021/07/26 02:28:51;;;;;;;1.60;1.47;;;;;;;26.69;45.81;97862.53;5033153;28;20208;-59
2021/07/26 02:31:18;;;;;;;2.17;1.97;;;;;;;26.83;45.01;97850.56;5031508;28;20213;-59
2021/07/26 02:33:44;;;;;;;1.80;1.70;;;;;;;26.84;45.40;97849.53;5032753;28;20201;-59
2021/07/26 02:36:11;;;;;;;1.87;1.77;;;;;;;26.90;44.98;97853.97;5015141;28;20251;-60
2021/07/26 02:38:37;;;;;;;1.67;1.57;;;;;;;26.90;45.25;97851.31;5032773;28;20190;-59
2021/07/26 02:41:11;;;;;;;2.10;1.97;;;;;;;26.77;45.14;97854.97;5032763;28;20668;-59
2021/07/26 02:43:38;;;;;;;2.00;1.63;;;;;;;26.79;45.47;97852.09;5033248;28;20187;-60
2021/07/26 02:46:06;;;;;;;1.70;1.60;;;;;;;26.74;45.55;97868.00;5032881;28;20551;-59
2021/07/26 02:48:33;;;;;;;1.67;1.57;;;;;;;26.75;45.09;97861.59;5032718;28;20197;-60
2021/07/26 02:50:59;;;;;;;1.77;1.67;;;;;;;26.75;45.36;97867.78;5033123;28;20193;-59
2021/07/26 02:53:26;;;;;;;1.93;1.80;;;;;;;26.75;45.54;97864.28;5032575;28;20206;-60
2021/07/26 02:55:53;;;;;;;1.77;1.67;;;;;;;26.75;45.50;97869.63;5032599;28;20194;-60
2021/07/26 02:58:22;;;;;;;1.70;1.60;;;;;;;26.72;45.54;97864.75;5032595;28;20571;-59
2021/07/26 03:00:49;;;;;;;1.63;1.53;;;;;;;26.79;45.37;97868.94;5032822;28;20197;-59
2021/07/26 03:03:16;;;;;;;1.70;1.60;;;;;;;26.69;45.60;97867.88;5031577;28;20676;-59
2021/07/26 03:05:43;;;;;;;1.80;1.70;;;;;;;26.69;45.23;97873.25;5034196;28;20201;-59
2021/07/26 03:08:11;;;;;;;1.70;1.60;;;;;;;26.71;45.56;97869.28;5036441;28;20197;-60
2021/07/26 03:10:37;;;;;;;1.80;1.70;;;;;;;26.76;45.30;97871.25;5036283;28;20190;-59
2021/07/26 03:13:04;;;;;;;1.63;1.53;;;;;;;26.77;44.98;97876.41;5036036;28;20218;-60
2021/07/26 03:15:30;;;;;;;1.70;1.60;;;;;;;26.77;44.91;97878.25;5034955;28;20205;-60
2021/07/26 03:17:57;;;;;;;1.80;1.70;;;;;;;26.82;45.28;97877.56;5036189;28;20681;-60
2021/07/26 03:20:24;;;;;;;1.60;1.50;;;;;;;26.81;44.84;97887.47;5036117;28;20190;-60
2021/07/26 03:23:00;;;;;;;1.70;1.60;;;;;;;26.85;44.78;97888.63;5036012;28;20206;-59
2021/07/26 03:25:29;;;;;;;1.53;1.43;;;;;;;26.85;44.76;97883.28;5036587;28;20182;-60
2021/07/26 03:27:56;;;;;;;1.67;1.57;;;;;;;26.88;44.97;97884.72;5034627;28;20206;-60
2021/07/26 03:30:22;;;;;;;2.50;1.67;;;;;;;26.98;44.39;97884.16;5035159;28;20217;-59
2021/07/26 03:32:49;;;;;;;1.77;1.67;;;;;;;27.01;44.45;97881.00;5035677;28;20206;-59
2021/07/26 03:35:18;;;;;;;1.87;1.70;;;;;;;26.96;44.37;97878.22;5035851;28;20202;-60
2021/07/26 03:37:45;;;;;;;1.87;1.77;;;;;;;26.93;44.40;97874.13;5035718;28;20205;-60
2021/07/26 03:40:12;;;;;;;2.63;1.70;;;;;;;26.81;44.77;97882.13;5035682;28;20260;-60
2021/07/26 03:42:41;;;;;;;1.80;1.70;;;;;;;26.77;44.68;97884.44;5035767;28;20201;-60
2021/07/26 03:45:11;;;;;;;1.53;1.40;;;;;;;26.75;45.05;97877.66;5035590;28;20190;-59
2021/07/26 03:47:38;;;;;;;1.90;1.67;;;;;;;26.74;44.89;97876.84;5035560;28;20186;-59
2021/07/26 03:50:07;;;;;;;1.90;1.70;;;;;;;26.74;45.19;97866.16;5034158;28;20564;-60
2021/07/26 03:52:50;;;;;;;1.83;1.73;;;;;;;26.78;45.10;97869.19;5035316;28;20217;-60
2021/07/26 03:55:21;;;;;;;2.10;1.70;;;;;;;26.74;44.92;97876.03;5035896;28;20193;-60
2021/07/26 03:57:49;;;;;;;2.23;1.77;;;;;;;26.75;44.89;97877.66;5035462;28;20253;-59
2021/07/26 04:00:17;;;;;;;1.80;1.70;;;;;;;26.77;44.68;97880.91;5035353;28;20734;-60
2021/07/26 04:05:31;;;;;;;1.40;1.30;;;;;;;26.80;45.02;97885.84;5035733;28;20208;-59
2021/07/26 04:08:07;;;;;;;1.50;1.40;;;;;;;26.79;44.85;97886.88;5035420;28;20186;-60
2021/07/26 04:10:34;;;;;;;1.27;1.23;;;;;;;26.83;44.55;97889.91;5035154;28;20193;-60
2021/07/26 04:13:01;;;;;;;3.00;1.60;;;;;;;26.75;44.89;97891.03;5034988;28;20217;-59
2021/07/26 04:15:28;;;;;;;1.83;1.73;;;;;;;26.74;45.06;97889.41;5035027;28;20186;-60
2021/07/26 04:17:54;;;;;;;1.70;1.60;;;;;;;26.74;45.00;97897.44;5032950;28;20198;-60
2021/07/26 04:20:21;;;;;;;1.60;1.50;;;;;;;26.69;44.79;97908.03;5033700;28;20224;-60
2021/07/26 04:22:48;;;;;;;1.27;1.27;;;;;;;26.71;44.65;97901.41;5034819;28;20217;-60
2021/07/26 04:25:14;;;;;;;1.77;1.67;;;;;;;26.74;44.70;97894.75;5035344;28;20191;-60
2021/07/26 04:27:41;;;;;;;1.60;1.50;;;;;;;26.75;44.54;97896.41;5033544;28;20652;-60
2021/07/26 04:30:08;;;;;;;1.73;1.63;;;;;;;26.73;45.05;97903.84;5033766;28;20656;-60
2021/07/26 04:32:46;;;;;;;1.70;1.60;;;;;;;26.75;44.93;97904.44;5033351;28;20241;-60
2021/07/26 04:35:14;;;;;;;2.17;1.60;;;;;;;26.76;44.51;97906.06;5034728;28;20568;-60
2021/07/26 04:37:41;;;;;;;1.80;1.70;;;;;;;26.80;44.43;97901.91;5034789;28;20186;-60
2021/07/26 04:40:09;;;;;;;1.80;1.70;;;;;;;26.81;44.67;97900.03;5034631;28;20190;-60
2021/07/26 04:42:37;;;;;;;1.50;1.40;;;;;;;26.80;44.57;97907.25;5033330;28;20198;-59
2021/07/26 04:45:06;;;;;;;1.80;1.70;;;;;;;26.76;44.82;97908.72;5034457;28;20197;-60
2021/07/26 04:47:32;;;;;;;1.70;1.60;;;;;;;26.76;44.80;97903.38;5034394;28;20185;-60
2021/07/26 04:49:59;;;;;;;1.80;1.70;;;;;;;26.78;44.76;97909.34;5034361;28;20190;-60
2021/07/26 04:52:26;;;;;;;1.50;1.40;;;;;;;26.78;44.64;97909.34;5034144;28;20565;-59
2021/07/26 04:54:53;;;;;;;1.93;1.63;;;;;;;26.77;44.39;97900.47;5034289;28;20194;-60
2021/07/26 04:57:20;;;;;;;1.60;1.50;;;;;;;26.80;44.61;97907.25;5034248;28;20193;-59
2021/07/26 04:59:46;;;;;;;3.30;1.50;;;;;;;26.81;44.28;97905.38;5034185;28;20194;-59
2021/07/26 05:02:13;;;;;;;1.93;1.53;;;;;;;26.86;44.16;97901.00;5034060;28;20202;-60
2021/07/26 05:04:39;;;;;;;2.43;1.70;;;;;;;26.91;44.27;97898.44;5034087;28;20194;-60
2021/07/26 05:07:06;;;;;;;1.70;1.60;;;;;;;26.91;44.29;97906.47;5034326;28;20197;-61
2021/07/26 05:09:40;;;;;;;1.80;1.70;;;;;;;26.92;44.24;97908.09;5034249;28;20190;-60
2021/07/26 05:12:12;;;;;;;1.73;1.57;;;;;;;26.87;44.20;97913.34;5034080;28;20213;-60
2021/07/26 05:14:40;;;;;;;1.90;1.80;;;;;;;26.89;44.22;97897.84;5034495;28;20201;-60
2021/07/26 05:17:06;;;;;;;1.90;1.70;;;;;;;26.85;44.07;97898.50;5033879;28;20196;-60
2021/07/26 05:19:33;;;;;;;1.80;1.70;;;;;;;26.87;44.31;97896.47;5033818;28;20858;-60
2021/07/26 05:21:59;;;;;;;1.70;1.60;;;;;;;26.86;43.98;97903.69;5034052;28;20213;-60
2021/07/26 05:24:26;;;;;;;1.70;1.60;;;;;;;26.95;44.01;97909.50;5033731;28;20661;-61
2021/07/26 05:27:03;;;;;;;1.70;1.60;;;;;;;26.89;44.42;97903.22;5033652;28;20190;-60
2021/07/26 05:29:31;;;;;;;3.90;1.97;;;;;;;26.84;44.39;97903.06;5033636;28;20196;-59
2021/07/26 05:31:58;;;;;;;2.50;1.70;;;;;;;26.83;44.38;97903.28;5033393;28;20205;-60
2021/07/26 05:34:25;;;;;;;1.80;1.70;;;;;;;26.84;44.21;97905.75;5033753;28;20198;-60
2021/07/26 05:36:53;;;;;;;2.60;1.70;;;;;;;26.86;44.09;97916.22;5033776;28;20601;-60
2021/07/26 05:39:19;;;;;;;1.50;1.40;;;;;;;26.83;44.37;97914.81;5033472;28;20240;-60
2021/07/26 05:41:46;;;;;;;2.50;1.77;;;;;;;26.78;44.12;97914.69;5033495;28;20216;-60
2021/07/26 05:44:13;;;;;;;1.80;1.70;;;;;;;26.75;44.71;97915.13;5033338;28;20190;-60
2021/07/26 05:46:40;;;;;;;2.67;1.70;;;;;;;26.77;44.56;97915.72;5033313;28;20186;-60
2021/07/26 05:49:06;;;;;;;2.00;1.80;;;;;;;26.78;44.44;97914.69;5031545;28;20197;-61
2021/07/26 05:51:33;;;;;;;2.33;1.57;;;;;;;26.78;44.74;97920.06;5033107;28;20213;-60
2021/07/26 05:53:59;;;;;;;1.73;1.63;;;;;;;26.82;44.07;97920.38;5033182;28;20205;-59
2021/07/26 05:56:28;;;;;;;1.80;1.70;;;;;;;26.84;44.45;97929.00;5033265;28;20197;-60
2021/07/26 05:58:57;;;;;;;1.83;1.70;;;;;;;26.77;44.39;97924.56;5031393;28;20641;-60
2021/07/26 06:03:50;;;;;;;1.60;1.50;;;;;;;26.77;44.24;97918.38;5031877;28;20198;-61
2021/07/26 06:06:17;;;;;;;3.80;2.30;;;;;;;26.80;44.23;97917.97;5033116;28;20552;-60
2021/07/26 06:08:44;;;;;;;4.33;3.70;;;;;;;26.75;44.67;97915.13;5033033;28;20729;-60
2021/07/26 06:11:11;;;;;;;3.63;3.33;;;;;;;26.70;45.19;97915.00;5033045;28;20182;-59
2021/07/26 06:13:37;;;;;;;5.33;4.10;;;;;;;26.68;45.13;97917.91;5031657;28;20567;-56
2021/07/26 06:16:07;;;;;;;7.60;4.23;;;;;;;26.58;45.42;97915.78;5033322;28;20268;-55
2021/07/26 06:18:34;;;;;;;7.27;4.03;;;;;;;26.49;46.27;97917.97;5031791;28;20208;-59
2021/07/26 06:21:07;;;;;;;4.83;4.33;;;;;;;26.55;46.70;97918.13;5033329;28;20241;-57
2021/07/26 06:23:34;;;;;;;7.10;4.77;;;;;;;26.51;46.80;97920.41;5032817;28;20206;-58
2021/07/26 06:26:05;;;;;;;5.17;4.20;;;;;;;26.57;46.71;97916.03;5031631;28;20228;-60
2021/07/26 06:28:32;;;;;;;5.17;4.30;;;;;;;26.52;46.78;97919.38;5031734;28;20232;-57
2021/07/26 06:31:01;;;;;;;5.40;3.93;;;;;;;26.52;46.96;97916.69;5032913;28;20205;-60
2021/07/26 06:33:27;;;;;;;5.40;4.90;;;;;;;26.49;46.65;97934.00;5031414;28;20214;-58
2021/07/26 06:35:54;;;;;;;5.60;5.00;;;;;;;26.45;47.10;97926.66;5031672;28;20269;-58
2021/07/26 06:38:21;;;;;;;9.03;4.53;;;;;;;26.47;47.02;97924.59;5031410;28;20198;-59
2021/07/26 06:40:47;;;;;;;5.07;4.43;;;;;;;26.39;47.34;97928.41;5033433;28;20260;-57
2021/07/26 06:43:15;;;;;;;6.40;4.53;;;;;;;26.31;47.15;97937.56;5036727;28;20217;-59
2021/07/26 06:45:41;;;;;;;7.03;5.23;;;;;;;26.38;47.37;97936.63;5035477;28;20198;-59
2021/07/26 06:48:08;;;;;;;5.93;5.30;;;;;;;26.39;47.33;97938.28;5036700;28;20194;-59
2021/07/26 06:50:38;;;;;;;6.63;5.07;;;;;;;26.35;47.54;97938.72;5037018;28;20186;-59
2021/07/26 06:53:08;;;;;;;5.80;5.10;;;;;;;26.35;47.95;97936.06;5036502;28;20214;-61
2021/07/26 06:55:38;;;;;;;6.37;5.37;;;;;;;26.43;47.76;97945.63;5035750;28;20197;-59
2021/07/26 06:58:05;;;;;;;8.70;5.37;;;;;;;26.44;48.07;97944.59;5036471;28;20194;-60
2021/07/26 07:00:32;;;;;;;8.63;4.90;;;;;;;26.34;48.31;97949.63;5035316;28;20201;-60
2021/07/26 07:02:59;;;;;;;5.73;4.77;;;;;;;26.27;48.60;97947.03;5036375;28;20212;-60
2021/07/26 07:05:25;;;;;;;8.07;5.13;;;;;;;26.28;48.57;97937.97;5035211;28;20201;-59
2021/07/26 07:07:52;;;;;;;5.20;4.53;;;;;;;26.28;48.55;97937.97;5036253;28;20190;-60
2021/07/26 07:10:18;;;;;;;6.03;4.50;;;;;;;26.26;48.69;97944.59;5034356;28;20608;-60
2021/07/26 07:12:45;;;;;;;5.43;4.20;;;;;;;26.29;48.61;97944.94;5036053;28;20214;-60
2021/07/26 07:16:11;;;;;;;6.47;4.40;;;;;;;-147.35;100.00;60165.28;5036116;28;20567;-60
2021/07/26 07:18:38;;;;;;;5.10;4.37;;;;;;;26.39;48.19;97949.81;5036135;28;20216;-59
2021/07/26 07:21:05;;;;;;;4.63;4.00;;;;;;;26.43;47.58;97947.47;5034801;28;20201;-60
2021/07/26 07:23:33;;;;;;;6.00;3.77;;;;;;;26.43;47.58;97947.47;5035988;28;20202;-57
2021/07/26 07:26:00;;;;;;;5.40;4.17;;;;;;;26.49;47.65;97960.75;5036044;28;20194;-58
2021/07/26 07:28:27;;;;;;;5.13;4.27;;;;;;;26.52;47.67;97954.16;5036264;28;20668;-59
2021/07/26 07:30:54;;;;;;;5.07;4.03;;;;;;;26.48;47.53;97958.34;5035828;28;20190;-58
2021/07/26 07:33:20;;;;;;;4.17;3.87;;;;;;;26.46;47.63;97960.41;5035773;28;20214;-57
2021/07/26 07:35:47;;;;;;;5.03;3.80;;;;;;;26.49;47.64;97966.13;5035304;28;20194;-59
2021/07/26 07:38:18;;;;;;;5.47;4.10;;;;;;;26.50;47.27;97954.38;5034880;28;20174;-57
2021/07/26 07:40:44;;;;;;;5.27;3.93;;;;;;;26.54;47.30;97961.97;5036231;28;20656;-60
2021/07/26 07:43:11;;;;;;;5.20;4.17;;;;;;;26.52;47.63;97962.19;5035663;28;20197;-59
2021/07/26 07:45:37;;;;;;;6.13;4.10;;;;;;;26.50;47.55;97966.94;5034301;28;20191;-62
2021/07/26 07:48:04;;;;;;;5.13;4.00;;;;;;;26.59;47.65;97967.44;5035477;28;20226;-63
2021/07/26 07:50:31;;;;;;;5.03;4.17;;;;;;;26.56;47.95;97970.59;5035525;28;20186;-61
2021/07/26 07:52:58;;;;;;;5.70;4.30;;;;;;;26.59;47.89;97960.22;5034091;28;20213;-60
2021/07/26 07:55:25;;;;;;;5.50;3.97;;;;;;;26.63;47.59;97965.94;5035488;28;20281;-60
2021/07/26 07:57:52;;;;;;;4.73;4.20;;;;;;;26.66;47.58;97967.38;5035413;28;20331;-60
2021/07/26 08:00:20;;;;;;;6.17;4.20;;;;;;;26.71;47.62;97972.84;5035445;28;20660;-62
2021/07/26 08:02:47;;;;;;;5.00;4.10;;;;;;;26.74;47.31;97969.72;5035189;28;20206;-61
2021/07/26 08:05:17;;;;;;;5.43;4.53;;;;;;;26.76;47.24;97970.28;5034213;28;20194;-61
2021/07/26 08:07:44;;;;;;;4.93;4.30;;;;;;;26.75;47.60;97974.84;5035186;28;20240;-61
2021/07/26 08:10:12;;;;;;;4.57;3.97;;;;;;;26.69;47.97;97974.94;5035226;28;20212;-61
2021/07/26 08:12:39;;;;;;;6.43;4.50;;;;;;;26.70;48.12;97982.75;5033800;28;20252;-61
2021/07/26 08:15:07;;;;;;;5.80;4.13;;;;;;;26.70;48.31;97984.59;5035566;28;20190;-61
2021/07/26 08:17:33;;;;;;;6.00;4.60;;;;;;;26.68;47.97;97978.66;5035138;28;20190;-60
2021/07/26 08:20:03;;;;;;;5.30;4.50;;;;;;;26.72;48.22;97982.50;5035028;28;20228;-61
2021/07/26 08:22:29;;;;;;;4.83;4.33;;;;;;;26.74;48.19;97983.09;5035065;28;20213;-61
2021/07/26 08:24:56;;;;;;;4.73;4.33;;;;;;;26.75;48.34;97984.72;5033850;28;20197;-61
2021/07/26 08:27:22;;;;;;;4.90;4.40;;;;;;;26.72;47.95;97994.03;5034932;28;20202;-61
2021/07/26 08:29:49;;;;;;;6.10;4.33;;;;;;;26.72;48.52;97987.84;5034783;28;20190;-61
2021/07/26 08:32:16;;;;;;;4.87;4.00;;;;;;;26.70;48.14;97987.28;5034187;28;20214;-61
2021/07/26 08:34:42;;;;;;;4.93;4.00;;;;;;;26.76;48.24;97986.34;5032651;28;20700;-62
2021/07/26 08:37:09;;;;;;;4.57;4.17;;;;;;;26.77;47.84;97982.63;5034558;28;20550;-60
2021/07/26 08:39:38;;;;;;;4.60;4.07;;;;;;;26.87;47.47;97982.94;5034707;28;20683;-61
2021/07/26 08:42:05;;;;;;;4.77;4.37;;;;;;;26.93;47.39;97990.06;5016891;28;20218;-61
2021/07/26 08:44:35;;;;;;;4.17;3.77;;;;;;;27.00;47.17;97994.50;5016926;28;20654;-61
2021/07/26 08:47:03;;;;;;;4.07;3.77;;;;;;;27.12;46.60;97994.53;5034336;28;20197;-61
2021/07/26 08:49:32;;;;;;;4.67;4.27;;;;;;;27.09;46.91;97993.13;5034317;28;20244;-61
2021/07/26 08:51:59;;;;;;;4.10;3.70;;;;;;;27.09;46.49;97987.78;5034381;28;20209;-61
2021/07/26 08:54:29;;;;;;;4.20;3.80;;;;;;;27.09;46.41;97985.09;5016466;28;20249;-61
2021/07/26 08:56:57;;;;;;;5.43;3.90;;;;;;;27.07;46.76;97987.19;5034382;28;20186;-60
2021/07/26 08:59:24;;;;;;;3.90;3.60;;;;;;;27.09;46.47;97985.09;5034217;28;20190;-61
2021/07/26 09:01:53;;;;;;;3.80;3.50;;;;;;;27.09;46.57;97984.28;5033976;28;20205;-60
2021/07/26 09:04:21;;;;;;;5.30;3.40;;;;;;;27.10;46.43;97986.75;5032736;28;20232;-61
2021/07/26 09:06:48;;;;;;;4.60;3.70;;;;;;;27.11;46.29;97983.03;5034038;28;20182;-61
2021/07/26 09:09:14;;;;;;;4.90;3.80;;;;;;;27.10;46.55;97980.56;5034000;28;20190;-61
2021/07/26 09:11:45;;;;;;;3.97;3.53;;;;;;;27.07;46.50;97992.53;5033968;28;20217;-61
2021/07/26 09:14:38;;;;;;;4.20;3.60;;;;;;;27.14;46.14;97987.91;5016633;28;20213;-61
2021/07/26 09:17:08;;;;;;;4.20;3.80;;;;;;;27.18;45.95;97991.75;5033901;28;20178;-61
2021/07/26 09:20:00;;;;;;;4.53;3.70;;;;;;;27.24;46.01;97991.88;5033851;28;20186;-61
2021/07/26 09:22:34;;;;;;;4.00;3.63;;;;;;;27.24;45.70;97997.25;5033612;28;20259;-60
2021/07/26 09:25:21;;;;;;;5.57;3.87;;;;;;;27.33;45.55;97993.19;5033605;28;20162;-61
2021/07/26 09:28:06;;;;;;;3.93;3.57;;;;;;;27.31;45.90;97987.25;5033625;28;20182;-61
2021/07/26 09:30:46;;;;;;;4.30;3.90;;;;;;;27.30;45.98;97993.66;5034122;28;20182;-61
2021/07/26 09:33:24;;;;;;;5.10;4.10;;;;;;;27.29;45.68;97986.66;5033514;28;20261;-62
2021/07/26 09:36:13;;;;;;;6.27;3.70;;;;;;;27.33;45.61;97988.63;5033701;28;20571;-61
2021/07/26 09:38:42;;;;;;;4.37;4.00;;;;;;;27.29;45.67;97984.78;5033722;28;20179;-64
2021/07/26 09:41:09;;;;;;;4.53;3.60;;;;;;;27.37;45.82;97980.97;5033475;28;20696;-62
2021/07/26 09:43:36;;;;;;;4.90;3.80;;;;;;;27.40;45.43;97975.13;5033326;28;20210;-62
2021/07/26 09:46:03;;;;;;;4.17;3.67;;;;;;;27.38;45.60;97981.78;5031464;28;20217;-62
2021/07/26 09:48:32;;;;;;;5.17;4.13;;;;;;;27.43;45.53;97979.22;5032176;28;20194;-62
2021/07/26 09:51:19;;;;;;;4.30;3.57;;;;;;;27.38;45.79;97984.47;5032660;28;20652;-63
2021/07/26 09:53:50;;;;;;;3.73;3.40;;;;;;;27.41;45.36;97992.84;5033315;28;20217;-63
2021/07/26 09:56:16;;;;;;;4.20;3.80;;;;;;;27.41;45.57;97990.16;5033311;28;20185;-62
2021/07/26 09:58:43;;;;;;;3.87;3.57;;;;;;;27.43;45.49;97988.09;5033318;28;20680;-63
2021/07/26 10:01:12;;;;;;;4.27;3.83;;;;;;;27.44;45.49;97991.56;5032047;28;20193;-63
2021/07/26 10:03:42;;;;;;;4.00;3.70;;;;;;;27.39;45.35;97986.91;5031311;28;20837;-63
2021/07/26 10:06:10;;;;;;;3.67;3.37;;;;;;;27.33;45.52;97988.63;5033303;28;20186;-59
2021/07/26 10:08:38;;;;;;;4.63;3.73;;;;;;;27.32;45.47;97987.00;5031887;28;20200;-58
2021/07/26 10:11:08;;;;;;;4.10;3.70;;;;;;;27.35;45.40;97983.88;5033091;28;20686;-59
2021/07/26 10:13:38;;;;;;;3.53;3.23;;;;;;;27.37;45.49;97991.69;5031659;28;20321;-60
2021/07/26 10:16:06;;;;;;;3.83;3.53;;;;;;;27.41;45.03;97978.66;5030375;28;20285;-60
2021/07/26 10:18:32;;;;;;;4.30;3.67;;;;;;;27.44;45.27;97981.69;5033004;28;20193;-58
2021/07/26 10:21:05;;;;;;;5.40;3.50;;;;;;;27.47;45.11;97988.44;5032953;28;20205;-60
2021/07/26 10:23:36;;;;;;;3.70;3.40;;;;;;;27.53;45.04;97994.75;5031746;28;20225;-61
2021/07/26 10:26:09;;;;;;;3.77;3.47;;;;;;;27.56;44.84;97994.28;5032911;28;20175;-59
2021/07/26 10:28:51;;;;;;;3.50;3.20;;;;;;;27.56;44.86;97991.59;5032834;28;20198;-60
2021/07/26 10:31:35;;;;;;;3.33;3.03;;;;;;;27.57;45.02;97993.25;5033460;28;20174;-61
2021/07/26 10:34:08;;;;;;;3.93;3.50;;;;;;;27.61;44.60;97981.03;5032868;28;20284;-61
2021/07/26 10:36:40;;;;;;;4.10;3.60;;;;;;;27.62;44.93;97978.09;5033397;28;20193;-60
2021/07/26 10:39:13;;;;;;;3.60;3.30;;;;;;;27.58;44.81;97981.47;5032771;28;20224;-61
2021/07/26 10:41:42;;;;;;;4.13;3.30;;;;;;;27.59;44.88;97972.41;5032567;28;20210;-60
2021/07/26 10:44:15;;;;;;;3.77;3.30;;;;;;;27.64;44.47;97980.56;5031325;28;20187;-60
2021/07/26 10:46:50;;;;;;;3.60;3.30;;;;;;;27.63;44.37;97981.59;5031331;28;20656;-60
2021/07/26 10:49:17;;;;;;;3.90;3.30;;;;;;;27.69;44.50;97987.91;5031500;28;20652;-60
2021/07/26 10:51:49;;;;;;;3.90;3.17;;;;;;;27.64;44.71;97988.59;5031717;28;20247;-60
2021/07/26 10:54:36;;;;;;;3.60;3.30;;;;;;;27.67;44.74;97979.28;5032512;28;20605;-60
2021/07/26 10:57:09;;;;;;;3.23;2.93;;;;;;;27.67;44.23;97977.41;5032045;28;20613;-60
2021/07/26 11:00:09;;;;;;;3.80;3.27;;;;;;;27.58;44.64;97984.16;5032001;28;20217;-61
2021/07/26 11:02:38;;;;;;;4.97;3.60;;;;;;;27.58;44.38;97982.31;5032511;28;20226;-61
2021/07/26 11:05:26;;;;;;;6.17;4.17;;;;;;;27.56;44.52;97986.25;5032609;28;20190;-60
2021/07/26 11:08:14;;;;;;;9.30;4.87;;;;;;;27.56;44.58;97978.22;5032831;28;20525;-60
2021/07/26 11:10:40;;;;;;;8.73;4.23;;;;;;;27.53;44.72;97976.00;5031625;28;20167;-62
2021/07/26 11:13:07;;;;;;;5.23;3.83;;;;;;;27.54;45.00;97974.94;5032377;28;20210;-59
2021/07/26 11:15:46;;;;;;;7.40;4.43;;;;;;;27.52;44.98;97972.53;5032444;28;20210;-61
2021/07/26 11:18:18;;;;;;;3.87;3.47;;;;;;;27.58;44.65;97966.22;5032765;28;20186;-59
2021/07/26 11:21:05;;;;;;;4.37;3.47;;;;;;;27.57;44.60;97974.47;5032746;28;20178;-60
2021/07/26 11:23:41;;;;;;;5.23;3.20;;;;;;;27.58;44.45;97970.75;5031293;28;20589;-60
2021/07/26 11:26:28;;;;;;;3.97;3.67;;;;;;;27.62;44.30;97962.00;5032659;28;20534;-60
2021/07/26 11:29:00;;;;;;;4.00;3.60;;;;;;;27.63;44.43;97958.28;5036272;28;20183;-61
2021/07/26 11:31:29;;;;;;;3.60;3.10;;;;;;;27.68;44.05;97954.91;5036074;28;20178;-60
2021/07/26 11:34:16;;;;;;;3.97;3.40;;;;;;;27.71;43.92;97965.16;5034504;28;20236;-60
2021/07/26 11:37:08;;;;;;;3.73;3.40;;;;;;;27.72;44.08;97958.75;5035714;28;20213;-60
2021/07/26 11:39:48;;;;;;;5.43;3.90;;;;;;;27.76;44.26;97957.25;5035778;28;20691;-60
2021/07/26 11:42:20;;;;;;;3.90;3.50;;;;;;;27.80;43.95;97952.22;5035832;28;20210;-60
2021/07/26 11:44:49;;;;;;;4.20;3.80;;;;;;;27.82;44.07;97957.34;5035604;28;20178;-60
2021/07/26 11:47:17;;;;;;;3.67;3.37;;;;;;;27.85;43.99;97960.38;5035571;28;20191;-59
2021/07/26 11:49:54;;;;;;;3.77;3.47;;;;;;;27.86;43.54;97966.56;5035053;28;20635;-59
2021/07/26 11:52:21;;;;;;;5.00;3.40;;;;;;;27.85;43.69;97962.25;5035334;28;20209;-59